createdAt,value
2022-11-19T00:01:23.944Z,7.70
2022-11-19T00:03:53.017Z,8.95
2022-11-19T00:06:25.222Z,8.43
2022-11-19T00:08:52.345Z,9.10
2022-11-19T00:11:41.308Z,7.35
2022-11-19T00:14:09.364Z,8.40
2022-11-19T00:16:35.728Z,7.82
2022-11-19T00:19:02.462Z,7.82
2022-11-19T00:21:28.816Z,7.75
2022-11-19T00:23:55.914Z,8.45
2022-11-19T00:26:22.641Z,9.07
2022-11-19T00:28:49.238Z,7.70
2022-11-19T00:31:16.146Z,8.48
2022-11-19T00:33:44.227Z,7.63
2022-11-19T00:36:13.168Z,7.95
2022-11-19T00:38:39.749Z,7.90
2022-11-19T00:41:06.837Z,8.25
2022-11-19T00:43:49.353Z,8.77
2022-11-19T00:46:25.393Z,9.07
2022-11-19T00:48:53.846Z,8.38
2022-11-19T00:51:21.898Z,7.82
2022-11-19T00:53:48.685Z,8.30
2022-11-19T00:56:18.026Z,7.30
2022-11-19T00:58:44.979Z,7.45
2022-11-19T01:01:12.793Z,7.13
2022-11-19T01:03:40.662Z,7.38
2022-11-19T01:06:08.315Z,7.50
2022-11-19T01:08:35.173Z,7.75
2022-11-19T01:11:15.937Z,8.00
2022-11-19T01:13:42.459Z,7.18
2022-11-19T01:16:23.755Z,7.68
2022-11-19T01:18:51.106Z,7.25
2022-11-19T01:21:20.291Z,7.60
2022-11-19T01:23:46.974Z,7.55
2022-11-19T01:26:14.842Z,8.02
2022-11-19T01:28:41.779Z,9.32
2022-11-19T01:31:10.434Z,6.97
2022-11-19T01:33:37.950Z,7.75
2022-11-19T01:36:08.113Z,7.80
2022-11-19T01:38:34.677Z,7.93
2022-11-19T01:41:02.319Z,7.85
2022-11-19T01:43:47.544Z,8.18
2022-11-19T01:46:16.156Z,8.00
2022-11-19T01:48:55.292Z,8.98
2022-11-19T01:51:44.098Z,8.30
2022-11-19T01:54:32.115Z,7.57
2022-11-19T01:57:03.244Z,7.90
2022-11-19T01:59:31.225Z,8.75
2022-11-19T02:01:57.755Z,7.63
2022-11-19T02:04:25.347Z,7.82
2022-11-19T02:06:53.649Z,8.25
2022-11-19T02:09:20.609Z,8.43
2022-11-19T02:12:07.254Z,8.13
2022-11-19T02:14:52.024Z,8.85
2022-11-19T02:17:39.290Z,8.60
2022-11-19T02:20:27.685Z,7.95
2022-11-19T02:23:40.642Z,7.97
2022-11-19T02:26:30.106Z,8.00
2022-11-19T02:29:16.611Z,8.98
2022-11-19T02:31:58.162Z,7.53
2022-11-19T02:34:34.645Z,8.35
2022-11-19T02:37:08.551Z,7.50
2022-11-19T02:40:03.452Z,8.40
2022-11-19T02:42:42.386Z,7.88
2022-11-19T02:45:14.198Z,8.20
2022-11-19T02:47:56.865Z,7.95
2022-11-19T02:50:55.863Z,8.23
2022-11-19T02:53:23.512Z,7.50
2022-11-19T02:56:08.447Z,7.85
2022-11-19T02:58:56.115Z,7.85
2022-11-19T03:01:43.175Z,8.07
2022-11-19T03:04:29.894Z,8.27
2022-11-19T03:07:01.996Z,8.18
2022-11-19T03:09:30.709Z,7.65
2022-11-19T03:12:09.594Z,7.93
2022-11-19T03:15:07.593Z,7.82
2022-11-19T03:17:52.457Z,8.70
2022-11-19T03:20:25.340Z,8.23
2022-11-19T03:22:57.119Z,8.48
2022-11-19T03:25:31.409Z,7.70
2022-11-19T03:28:03.486Z,7.95
2022-11-19T03:30:31.019Z,8.73
2022-11-19T03:33:12.245Z,8.43
2022-11-19T03:35:53.303Z,7.90
2022-11-19T03:38:26.596Z,8.10
2022-11-19T03:40:55.052Z,8.13
2022-11-19T03:43:27.048Z,8.93
2022-11-19T03:45:57.065Z,7.68
2022-11-19T03:48:25.570Z,7.32
2022-11-19T03:50:57.725Z,7.93
2022-11-19T03:53:24.369Z,7.45
2022-11-19T03:56:01.688Z,8.80
2022-11-19T03:58:29.605Z,8.10
2022-11-19T04:00:56.058Z,8.60
2022-11-19T04:03:22.687Z,8.68
2022-11-19T04:05:49.059Z,7.90
2022-11-19T04:08:15.567Z,7.80
2022-11-19T04:10:41.986Z,8.02
2022-11-19T04:13:08.339Z,8.38
2022-11-19T04:15:34.791Z,8.05
2022-11-19T04:18:01.291Z,8.57
2022-11-19T04:20:29.047Z,7.97
2022-11-19T04:22:55.422Z,8.52
2022-11-19T04:25:21.904Z,8.35
2022-11-19T04:27:51.459Z,8.70
2022-11-19T04:30:18.064Z,8.57
2022-11-19T04:32:44.450Z,8.68
2022-11-19T04:35:11.034Z,9.00
2022-11-19T04:37:37.381Z,8.68
2022-11-19T04:40:07.281Z,9.27
2022-11-19T04:42:33.636Z,8.57
2022-11-19T04:45:00.195Z,9.23
2022-11-19T04:47:26.799Z,9.20
2022-11-19T04:49:53.131Z,9.20
2022-11-19T04:52:19.566Z,9.32
2022-11-19T04:54:46.172Z,9.23
2022-11-19T04:57:12.640Z,8.48
2022-11-19T04:59:39.050Z,9.55
2022-11-19T05:02:05.421Z,8.70
2022-11-19T05:04:31.800Z,8.85
2022-11-19T05:06:58.330Z,8.75
2022-11-19T05:09:24.711Z,8.63
2022-11-19T05:11:51.120Z,8.27
2022-11-19T05:14:17.487Z,8.88
2022-11-19T05:16:43.856Z,8.45
2022-11-19T05:19:10.770Z,9.52
2022-11-19T05:21:37.285Z,8.82
2022-11-19T05:24:03.785Z,8.63
2022-11-19T05:26:30.341Z,8.65
2022-11-19T05:28:56.682Z,9.00
2022-11-19T05:31:23.037Z,8.18
2022-11-19T05:33:49.400Z,8.95
2022-11-19T05:36:15.870Z,9.32
2022-11-19T05:38:42.403Z,8.35
2022-11-19T05:41:08.862Z,8.43
2022-11-19T05:43:35.222Z,9.18
2022-11-19T05:46:02.734Z,9.45
2022-11-19T05:48:29.825Z,9.13
2022-11-19T05:50:56.219Z,8.65
2022-11-19T05:53:22.565Z,8.75
2022-11-19T05:55:48.987Z,9.23
2022-11-19T05:58:15.378Z,9.13
2022-11-19T06:00:41.955Z,8.82
2022-11-19T06:03:09.323Z,8.75
2022-11-19T06:05:40.090Z,9.02
2022-11-19T06:08:07.060Z,8.73
2022-11-19T06:10:33.534Z,8.85
2022-11-19T06:13:00.307Z,8.88
2022-11-19T06:15:26.702Z,7.70
2022-11-19T06:17:53.132Z,8.40
2022-11-19T06:20:19.575Z,8.48
2022-11-19T06:22:45.937Z,8.57
2022-11-19T06:25:12.289Z,8.75
2022-11-19T06:27:38.848Z,8.27
2022-11-19T06:30:06.630Z,8.35
2022-11-19T06:32:33.319Z,8.40
2022-11-19T06:34:59.815Z,8.23
2022-11-19T06:37:26.173Z,8.10
2022-11-19T06:39:52.778Z,9.00
2022-11-19T06:42:37.329Z,8.02
2022-11-19T06:45:10.938Z,8.60
2022-11-19T06:47:38.487Z,8.43
2022-11-19T06:50:07.290Z,8.45
2022-11-19T06:52:33.631Z,8.32
2022-11-19T06:55:00.117Z,8.68
2022-11-19T06:57:26.697Z,7.90
2022-11-19T06:59:53.066Z,8.23
2022-11-19T07:02:21.623Z,8.02
2022-11-19T07:04:48.550Z,8.25
2022-11-19T07:07:15.046Z,8.50
2022-11-19T07:09:41.526Z,8.10
2022-11-19T07:12:08.984Z,8.10
2022-11-19T07:14:35.764Z,8.07
2022-11-19T07:17:02.379Z,8.25
2022-11-19T07:19:28.800Z,9.13
2022-11-19T07:21:55.154Z,8.98
2022-11-19T07:24:21.659Z,9.45
2022-11-19T07:26:47.998Z,9.30
2022-11-19T07:29:15.233Z,8.82
2022-11-19T07:31:42.044Z,8.73
2022-11-19T07:34:09.433Z,8.65
2022-11-19T07:36:36.302Z,8.80
2022-11-19T07:39:04.047Z,8.57
2022-11-19T07:41:49.087Z,7.95
2022-11-19T07:44:15.445Z,7.75
2022-11-19T07:46:41.973Z,8.43
2022-11-19T07:49:08.539Z,8.95
2022-11-19T07:51:34.963Z,8.05
2022-11-19T07:54:01.397Z,9.20
2022-11-19T07:56:27.928Z,8.23
2022-11-19T07:58:54.360Z,8.02
2022-11-19T08:01:22.883Z,8.73
2022-11-19T08:03:56.086Z,8.60
2022-11-19T08:06:25.486Z,8.85
2022-11-19T08:08:51.835Z,9.38
2022-11-19T08:11:18.474Z,9.18
2022-11-19T08:13:45.050Z,10.60
2022-11-19T08:16:34.421Z,9.55
2022-11-19T08:19:12.627Z,8.55
2022-11-19T08:21:44.396Z,8.32
2022-11-19T08:24:11.253Z,7.80
2022-11-19T08:26:38.481Z,6.95
2022-11-19T08:29:06.162Z,7.47
2022-11-19T08:31:32.663Z,7.97
2022-11-19T08:34:01.783Z,7.38
2022-11-19T08:36:28.349Z,7.63
2022-11-19T08:39:02.261Z,7.38
2022-11-19T08:41:47.301Z,7.65
2022-11-19T08:44:13.744Z,7.18
2022-11-19T08:46:40.591Z,7.05
2022-11-19T08:49:07.641Z,7.20
2022-11-19T08:51:34.414Z,6.38
2022-11-19T08:54:00.765Z,6.43
2022-11-19T08:56:27.159Z,5.85
2022-11-19T08:58:58.509Z,6.35
2022-11-19T09:01:27.893Z,6.25
2022-11-19T09:03:54.298Z,6.50
2022-11-19T09:06:20.671Z,6.63
2022-11-19T09:08:47.191Z,6.25
2022-11-19T09:11:18.567Z,7.03
2022-11-19T09:13:44.988Z,6.68
2022-11-19T09:16:12.427Z,6.45
2022-11-19T09:18:40.002Z,6.38
2022-11-19T09:21:07.437Z,6.68
2022-11-19T09:23:34.235Z,5.70
2022-11-19T09:26:13.938Z,6.70
2022-11-19T09:28:40.941Z,6.65
2022-11-19T09:31:18.706Z,6.32
2022-11-19T09:33:48.106Z,6.85
2022-11-19T09:36:15.715Z,6.50
2022-11-19T09:38:42.909Z,6.60
2022-11-19T09:41:34.118Z,7.03
2022-11-19T09:44:25.118Z,7.00
2022-11-19T09:47:10.036Z,6.68
2022-11-19T09:49:44.198Z,7.10
2022-11-19T09:52:14.918Z,6.40
2022-11-19T09:54:52.086Z,6.75
2022-11-19T09:57:31.217Z,6.25
2022-11-19T10:00:00.557Z,6.38
2022-11-19T10:02:27.774Z,7.20
2022-11-19T10:04:54.284Z,6.47
2022-11-19T10:07:29.960Z,6.53
2022-11-19T10:10:22.154Z,5.88
2022-11-19T10:13:19.935Z,5.80
2022-11-19T10:16:10.792Z,6.30
2022-11-19T10:19:02.776Z,5.57
2022-11-19T10:21:42.889Z,5.78
2022-11-19T10:24:23.390Z,5.28
2022-11-19T10:27:23.078Z,5.53
2022-11-19T10:29:54.542Z,5.57
2022-11-19T10:32:27.379Z,4.47
2022-11-19T10:34:58.659Z,5.25
2022-11-19T10:37:29.485Z,4.57
2022-11-19T10:40:02.907Z,4.60
2022-11-19T10:42:35.607Z,5.40
2022-11-19T10:45:05.052Z,4.70
2022-11-19T10:47:47.686Z,4.88
2022-11-19T10:50:18.349Z,4.97
2022-11-19T10:52:49.859Z,4.75
2022-11-19T10:55:23.518Z,5.00
2022-11-19T10:57:56.568Z,4.90
2022-11-19T11:00:23.155Z,4.60
2022-11-19T11:02:57.015Z,4.55
2022-11-19T11:05:23.424Z,4.40
2022-11-19T11:07:52.792Z,5.07
2022-11-19T11:10:25.328Z,4.65
2022-11-19T11:13:10.972Z,4.95
2022-11-19T11:15:45.579Z,4.63
2022-11-19T11:18:13.002Z,3.80
2022-11-19T11:20:46.371Z,4.03
2022-11-19T11:23:20.805Z,4.25
2022-11-19T11:26:05.560Z,4.53
2022-11-19T11:28:32.720Z,4.70
2022-11-19T11:31:05.048Z,3.97
2022-11-19T11:33:41.977Z,4.35
2022-11-19T11:36:15.573Z,4.68
2022-11-19T11:38:47.872Z,4.05
2022-11-19T11:44:08.479Z,3.55
2022-11-19T11:46:39.404Z,3.33
2022-11-19T11:49:12.671Z,3.03
2022-11-19T11:51:39.791Z,2.88
2022-11-19T11:54:20.718Z,3.08
2022-11-19T11:56:47.739Z,3.28
2022-11-19T11:59:26.946Z,3.10
2022-11-19T12:01:54.471Z,2.50
2022-11-19T12:04:20.965Z,2.50
2022-11-19T12:07:14.801Z,2.47
2022-11-19T12:10:06.113Z,2.50
2022-11-19T12:12:45.426Z,2.22
2022-11-19T12:15:29.710Z,2.33
2022-11-19T12:18:07.173Z,2.50
2022-11-19T12:20:49.314Z,2.10
2022-11-19T12:23:51.648Z,2.38
2022-11-19T12:27:01.081Z,3.08
2022-11-19T12:29:38.482Z,2.00
2022-11-19T12:32:47.110Z,1.90
2022-11-19T12:35:30.229Z,1.83
2022-11-19T12:38:11.497Z,1.63
2022-11-19T12:40:53.788Z,1.67
2022-11-19T12:43:39.193Z,2.10
2022-11-19T12:46:19.302Z,1.70
2022-11-19T12:49:06.787Z,2.30
2022-11-19T12:51:59.027Z,2.00
2022-11-19T12:54:37.573Z,2.20
2022-11-19T12:57:15.130Z,2.13
2022-11-19T13:00:04.565Z,2.40
2022-11-19T13:02:44.465Z,2.22
2022-11-19T13:05:17.542Z,2.13
2022-11-19T13:08:01.453Z,2.30
2022-11-19T13:10:38.046Z,2.53
2022-11-19T13:13:07.791Z,2.40
2022-11-19T13:15:42.488Z,2.53
2022-11-19T13:18:14.166Z,2.40
2022-11-19T13:20:51.875Z,2.70
2022-11-19T13:23:24.321Z,2.00
2022-11-19T13:26:23.157Z,2.28
2022-11-19T13:28:57.353Z,2.20
2022-11-19T13:31:41.132Z,2.60
2022-11-19T13:34:20.886Z,1.92
2022-11-19T13:37:12.902Z,1.88
2022-11-19T13:39:45.105Z,2.10
2022-11-19T13:42:32.839Z,1.77
2022-11-19T13:44:59.493Z,1.92
2022-11-19T13:47:57.925Z,2.28
2022-11-19T13:50:44.079Z,1.88
2022-11-19T13:53:34.796Z,2.08
2022-11-19T13:56:02.026Z,1.80
2022-11-19T13:58:38.258Z,1.85
2022-11-19T14:01:40.619Z,2.53
2022-11-19T14:04:35.663Z,2.28
2022-11-19T14:07:30.728Z,2.38
2022-11-19T14:10:24.573Z,2.00
2022-11-19T14:12:53.963Z,2.20
2022-11-19T14:15:45.193Z,2.50
2022-11-19T14:18:53.080Z,2.83
2022-11-19T14:22:05.439Z,2.30
2022-11-19T14:25:10.234Z,2.30
2022-11-19T14:27:36.799Z,2.38
2022-11-19T14:30:07.901Z,2.45
2022-11-19T14:32:37.311Z,2.10
2022-11-19T14:35:04.419Z,2.40
2022-11-19T14:37:40.835Z,2.00
2022-11-19T14:40:17.096Z,2.35
2022-11-19T14:43:20.600Z,2.40
2022-11-19T14:46:02.899Z,2.00
2022-11-19T14:48:31.396Z,2.00
2022-11-19T14:51:07.949Z,2.50
2022-11-19T14:53:48.331Z,2.50
2022-11-19T14:56:16.966Z,2.20
2022-11-19T14:59:06.916Z,2.58
2022-11-19T15:01:34.247Z,2.17
2022-11-19T15:04:05.703Z,2.58
2022-11-19T15:06:37.371Z,2.65
2022-11-19T15:09:03.764Z,2.30
2022-11-19T15:11:56.246Z,2.47
2022-11-19T15:14:28.528Z,2.55
2022-11-19T15:17:01.608Z,2.55
2022-11-19T15:19:40.585Z,2.30
2022-11-19T15:22:20.624Z,2.60
2022-11-19T15:24:56.444Z,2.65
2022-11-19T15:27:52.214Z,2.60
2022-11-19T15:30:30.247Z,2.95
2022-11-19T15:33:22.597Z,2.90
2022-11-19T15:36:13.182Z,2.67
2022-11-19T15:38:54.162Z,3.10
2022-11-19T15:41:26.662Z,3.03
2022-11-19T15:43:59.237Z,3.05
2022-11-19T15:46:45.966Z,3.25
2022-11-19T15:49:24.221Z,2.72
2022-11-19T15:51:56.683Z,3.67
2022-11-19T15:54:32.279Z,3.42
2022-11-19T15:57:03.178Z,3.50
2022-11-19T15:59:32.811Z,3.33
2022-11-19T16:02:04.985Z,4.00
2022-11-19T16:04:37.576Z,4.00
2022-11-19T16:07:08.806Z,4.65
2022-11-19T16:09:36.027Z,4.88
2022-11-19T16:12:21.239Z,4.90
2022-11-19T16:15:10.720Z,4.85
2022-11-19T16:17:47.376Z,4.85
2022-11-19T16:20:13.710Z,4.85
2022-11-19T16:22:44.445Z,4.80
2022-11-19T16:25:13.744Z,4.95
2022-11-19T16:27:44.943Z,4.28
2022-11-19T16:30:23.805Z,5.22
2022-11-19T16:32:50.554Z,4.80
2022-11-19T16:35:28.734Z,5.15
2022-11-19T16:37:55.981Z,4.97
2022-11-19T16:40:23.277Z,4.97
2022-11-19T16:42:54.327Z,4.53
2022-11-19T16:45:25.673Z,4.20
2022-11-19T16:48:01.016Z,4.80
2022-11-19T16:50:33.899Z,4.38
2022-11-19T16:53:01.831Z,5.50
2022-11-19T16:55:31.742Z,6.00
2022-11-19T16:57:59.243Z,5.50
2022-11-19T17:00:35.699Z,5.63
2022-11-19T17:03:29.237Z,6.95
2022-11-19T17:05:57.370Z,7.50
2022-11-19T17:08:36.485Z,6.85
2022-11-19T17:11:33.228Z,7.32
2022-11-19T17:14:22.509Z,6.28
2022-11-19T17:16:52.042Z,6.13
2022-11-19T17:19:27.566Z,6.43
2022-11-19T17:21:59.396Z,6.30
2022-11-19T17:24:28.232Z,5.93
2022-11-19T17:26:55.132Z,5.10
2022-11-19T17:29:23.425Z,7.28
2022-11-19T17:31:53.210Z,6.05
2022-11-19T17:34:24.622Z,5.88
2022-11-19T17:36:50.969Z,6.10
2022-11-19T17:39:22.493Z,5.97
2022-11-19T17:42:12.552Z,5.47
2022-11-19T17:44:39.625Z,5.60
2022-11-19T17:47:22.468Z,6.18
2022-11-19T17:49:50.527Z,6.22
2022-11-19T17:52:24.538Z,6.90
2022-11-19T17:54:52.803Z,6.53
2022-11-19T17:57:19.404Z,6.07
2022-11-19T17:59:46.075Z,6.68
2022-11-19T18:02:14.958Z,5.75
2022-11-19T18:04:45.232Z,6.55
2022-11-19T18:07:12.491Z,6.03
2022-11-19T18:09:39.839Z,6.55
2022-11-19T18:12:08.045Z,5.90
2022-11-19T18:14:34.919Z,6.20
2022-11-19T18:17:01.296Z,5.82
2022-11-19T18:19:28.640Z,5.93
2022-11-19T18:21:55.535Z,5.50
2022-11-19T18:24:22.222Z,5.70
2022-11-19T18:26:48.607Z,5.78
2022-11-19T18:29:15.150Z,5.95
2022-11-19T18:31:47.768Z,5.75
2022-11-19T18:34:18.775Z,6.25
2022-11-19T18:36:45.157Z,6.13
2022-11-19T18:39:11.540Z,5.80
2022-11-19T18:41:38.457Z,5.25
2022-11-19T18:44:24.265Z,5.90
2022-11-19T18:46:50.686Z,5.97
2022-11-19T18:49:17.126Z,5.65
2022-11-19T18:51:44.270Z,5.85
2022-11-19T18:54:14.035Z,6.78
2022-11-19T18:56:40.374Z,5.88
2022-11-19T18:59:06.864Z,5.88
2022-11-19T19:01:33.655Z,5.78
2022-11-19T19:04:00.265Z,5.70
2022-11-19T19:06:28.609Z,5.35
2022-11-19T19:08:54.983Z,5.20
2022-11-19T19:11:40.024Z,5.05
2022-11-19T19:14:06.477Z,4.72
2022-11-19T19:16:34.670Z,4.75
2022-11-19T19:19:01.805Z,5.05
2022-11-19T19:21:28.659Z,4.72
2022-11-19T19:23:55.353Z,5.40
2022-11-19T19:26:21.901Z,5.68
2022-11-19T19:28:50.179Z,4.85
2022-11-19T19:31:18.108Z,4.82
2022-11-19T19:33:46.140Z,4.60
2022-11-19T19:36:13.985Z,5.10
2022-11-19T19:38:40.824Z,5.32
2022-11-19T19:41:10.647Z,5.43
2022-11-19T19:43:37.023Z,5.53
2022-11-19T19:46:05.904Z,5.40
2022-11-19T19:48:32.789Z,5.47
2022-11-19T19:50:59.181Z,6.32
2022-11-19T19:53:25.549Z,5.50
2022-11-19T19:55:52.008Z,6.68
2022-11-19T19:58:18.399Z,6.68
2022-11-19T20:00:44.793Z,6.78
2022-11-19T20:03:15.443Z,6.85
2022-11-19T20:05:47.977Z,6.93
2022-11-19T20:08:14.338Z,6.97
2022-11-19T20:10:40.751Z,6.88
2022-11-19T20:13:28.016Z,6.80
2022-11-19T20:15:56.548Z,6.63
2022-11-19T20:18:24.568Z,6.72
2022-11-19T20:20:51.076Z,7.10
2022-11-19T20:23:17.586Z,6.45
2022-11-19T20:25:44.218Z,6.38
2022-11-19T20:28:11.182Z,6.82
2022-11-19T20:30:37.540Z,6.80
2022-11-19T20:33:04.063Z,6.80
2022-11-19T20:35:30.506Z,6.22
2022-11-19T20:38:02.221Z,5.25
2022-11-19T20:40:30.546Z,5.68
2022-11-19T20:43:15.700Z,6.13
2022-11-19T20:45:42.069Z,5.75
2022-11-19T20:48:08.564Z,6.28
2022-11-19T20:50:34.921Z,5.88
2022-11-19T20:53:01.847Z,5.93
2022-11-19T20:55:28.204Z,7.00
2022-11-19T20:57:56.044Z,6.72
2022-11-19T21:00:22.423Z,7.07
2022-11-19T21:02:48.893Z,6.38
2022-11-19T21:05:15.248Z,7.05
2022-11-19T21:07:41.812Z,6.38
2022-11-19T21:10:08.567Z,7.15
2022-11-19T21:12:34.909Z,7.70
2022-11-19T21:15:02.103Z,7.93
2022-11-19T21:17:28.665Z,7.15
2022-11-19T21:19:55.082Z,7.45
2022-11-19T21:22:21.449Z,6.90
2022-11-19T21:24:48.034Z,6.25
2022-11-19T21:27:14.385Z,6.55
2022-11-19T21:29:41.041Z,6.80
2022-11-19T21:32:08.071Z,6.53
2022-11-19T21:34:34.489Z,6.18
2022-11-19T21:37:00.869Z,6.53
2022-11-19T21:39:27.266Z,6.07
2022-11-19T21:41:53.620Z,6.63
2022-11-19T21:44:22.033Z,6.25
2022-11-19T21:46:48.743Z,6.47
2022-11-19T21:49:15.251Z,5.70
2022-11-19T21:51:41.662Z,5.18
2022-11-19T21:54:08.035Z,6.40
2022-11-19T21:56:38.522Z,5.93
2022-11-19T21:59:06.239Z,7.05
2022-11-19T22:01:32.680Z,6.20
2022-11-19T22:04:00.209Z,5.57
2022-11-19T22:06:26.547Z,6.15
2022-11-19T22:08:52.961Z,6.28
2022-11-19T22:11:28.463Z,5.68
2022-11-19T22:13:56.057Z,6.13
2022-11-19T22:16:23.390Z,5.97
2022-11-19T22:18:51.231Z,5.68
2022-11-19T22:21:17.855Z,5.10
2022-11-19T22:23:44.248Z,5.57
2022-11-19T22:26:12.483Z,6.10
2022-11-19T22:28:39.405Z,5.55
2022-11-19T22:31:06.138Z,5.95
2022-11-19T22:33:34.550Z,5.68
2022-11-19T22:36:09.252Z,5.47
2022-11-19T22:38:36.972Z,5.22
2022-11-19T22:41:12.153Z,5.70
2022-11-19T22:43:39.879Z,4.82
2022-11-19T22:46:08.490Z,5.15
2022-11-19T22:48:35.602Z,5.85
2022-11-19T22:51:22.654Z,4.90
2022-11-19T22:53:50.721Z,5.28
2022-11-19T22:56:20.885Z,4.28
2022-11-19T22:58:48.663Z,5.30
2022-11-19T23:01:26.762Z,5.47
2022-11-19T23:03:54.157Z,5.18
2022-11-19T23:06:21.236Z,5.30
2022-11-19T23:08:47.650Z,4.70
2022-11-19T23:11:16.234Z,5.28
2022-11-19T23:13:44.293Z,4.35
2022-11-19T23:16:13.388Z,4.93
2022-11-19T23:18:45.365Z,4.70
2022-11-19T23:21:17.133Z,4.95
2022-11-19T23:23:43.498Z,4.38
2022-11-19T23:26:12.241Z,5.10
2022-11-19T23:28:39.299Z,5.07
2022-11-19T23:31:08.923Z,4.55
2022-11-19T23:33:35.866Z,4.68
2022-11-19T23:36:04.855Z,4.00
2022-11-19T23:38:31.368Z,4.85
2022-11-19T23:41:00.890Z,6.22
2022-11-19T23:43:28.778Z,4.20
2022-11-19T23:45:57.516Z,4.70
2022-11-19T23:48:23.882Z,4.75
2022-11-19T23:50:50.303Z,3.95
2022-11-19T23:53:16.657Z,4.00
2022-11-19T23:55:47.448Z,5.00
2022-11-19T23:58:15.176Z,4.38
